createdAt,value
2019-04-03T11:28:37.891Z,1.40
2019-04-03T11:31:30.056Z,1.43
2019-04-03T11:34:22.167Z,1.30
2019-04-03T11:37:13.876Z,1.37
2019-04-03T11:40:07.824Z,1.50
2019-04-03T11:42:59.459Z,1.40
2019-04-03T11:45:51.035Z,1.60
2019-04-03T11:48:43.813Z,1.57
2019-04-03T11:51:35.416Z,1.40
2019-04-03T11:54:26.875Z,1.50
2019-04-03T11:57:18.546Z,1.30
2019-04-03T12:00:15.606Z,1.70
2019-04-03T12:03:07.088Z,1.30
2019-04-03T12:05:58.931Z,1.10
2019-04-03T12:08:50.703Z,1.07
2019-04-03T12:11:42.311Z,1.30
2019-04-03T12:14:33.841Z,1.57
2019-04-03T12:17:28.780Z,1.80
2019-04-03T12:20:19.789Z,1.30
2019-04-03T12:23:11.723Z,2.00
2019-04-03T12:26:03.806Z,1.30
2019-04-03T12:28:55.612Z,1.60
2019-04-03T12:31:47.196Z,1.30
2019-04-03T12:34:38.677Z,1.30
2019-04-03T12:37:30.354Z,1.40
2019-04-03T12:40:22.518Z,1.30
2019-04-03T12:43:14.931Z,1.30
2019-04-03T12:46:06.319Z,1.60
2019-04-03T12:48:57.892Z,1.50
2019-04-03T12:51:49.834Z,1.70
2019-04-03T12:54:41.631Z,2.03
2019-04-03T12:57:33.869Z,1.50
2019-04-03T13:00:27.236Z,1.70
2019-04-03T13:03:19.447Z,1.60
2019-04-03T13:06:11.302Z,1.90
2019-04-03T13:09:05.243Z,2.10
2019-04-03T13:11:56.696Z,2.13
2019-04-03T13:14:49.439Z,2.10
2019-04-03T13:17:43.589Z,1.90
2019-04-03T13:20:36.671Z,1.97
2019-04-03T13:23:27.710Z,1.80
2019-04-03T13:26:19.229Z,2.70
2019-04-03T13:29:10.680Z,1.70
2019-04-03T13:32:02.444Z,1.60
2019-04-03T13:34:53.850Z,1.50
2019-04-03T13:37:45.517Z,1.30
2019-04-03T13:40:38.987Z,1.23
2019-04-03T13:43:30.740Z,1.30
2019-04-03T13:46:22.283Z,1.17
2019-04-03T13:49:17.174Z,1.23
2019-04-03T13:52:09.793Z,1.00
2019-04-03T13:55:01.418Z,1.23
2019-04-03T13:57:53.583Z,1.20
2019-04-03T14:00:57.823Z,1.30
2019-04-03T14:03:38.462Z,1.50
2019-04-03T14:06:29.920Z,1.60
2019-04-03T14:09:21.734Z,1.70
2019-04-03T14:12:13.616Z,2.87
2019-04-03T14:15:06.521Z,1.83
2019-04-03T14:17:59.147Z,1.90
2019-04-03T14:20:52.058Z,1.83
2019-04-03T14:23:44.219Z,2.03
2019-04-03T14:26:35.921Z,2.13
2019-04-03T14:29:29.165Z,1.90
2019-04-03T14:32:22.133Z,1.83
2019-04-03T14:35:41.926Z,2.00
2019-04-03T14:38:07.745Z,1.80
2019-04-03T14:40:59.826Z,1.97
2019-04-03T14:43:51.177Z,2.50
2019-04-03T14:46:42.681Z,1.97
2019-04-03T14:49:35.066Z,2.80
2019-04-03T14:52:26.354Z,3.00
2019-04-03T14:55:22.370Z,2.70
2019-04-03T14:58:12.076Z,3.40
2019-04-03T15:01:03.530Z,2.97
2019-04-03T15:03:54.810Z,3.40
2019-04-03T15:06:47.515Z,3.50
2019-04-03T15:09:39.963Z,3.83
2019-04-03T15:12:31.266Z,3.60
2019-04-03T15:15:24.778Z,4.03
2019-04-03T15:18:18.675Z,3.20
2019-04-03T15:21:10.098Z,2.80
2019-04-03T15:24:01.549Z,3.07
2019-04-03T15:26:53.481Z,2.70
2019-04-03T15:29:45.761Z,3.03
2019-04-03T15:32:37.718Z,3.03
2019-04-03T15:35:29.870Z,3.40
2019-04-03T15:38:23.117Z,3.20
2019-04-03T15:41:14.951Z,2.60
2019-04-03T15:44:06.414Z,2.80
2019-04-03T15:47:00.738Z,3.40
2019-04-03T15:49:51.152Z,2.57
2019-04-03T15:52:43.969Z,2.93
2019-04-03T15:55:37.962Z,3.10
2019-04-03T15:58:29.904Z,2.90
